createdAt,value
2018-01-05T00:00:57.169Z,99.90
2018-01-05T00:03:25.710Z,99.90
2018-01-05T00:05:53.973Z,99.90
2018-01-05T00:08:22.845Z,99.90
2018-01-05T00:10:50.964Z,99.90
2018-01-05T00:13:19.075Z,99.90
2018-01-05T00:15:49.033Z,99.90
2018-01-05T00:18:17.160Z,99.90
2018-01-05T00:20:45.588Z,99.90
2018-01-05T00:23:14.058Z,99.90
2018-01-05T00:25:42.933Z,99.60
2018-01-05T00:28:11.349Z,99.50
2018-01-05T00:30:40.216Z,98.40
2018-01-05T00:33:08.416Z,98.40
2018-01-05T00:35:36.820Z,98.40
2018-01-05T00:38:04.953Z,98.10
2018-01-05T00:40:33.543Z,96.90
2018-01-05T00:43:02.658Z,95.80
2018-01-05T00:45:30.782Z,95.00
2018-01-05T00:47:59.648Z,94.10
2018-01-05T00:50:28.057Z,94.10
2018-01-05T00:52:57.024Z,92.50
2018-01-05T00:55:25.661Z,92.50
2018-01-05T00:57:54.486Z,92.90
2018-01-05T01:00:23.697Z,93.00
2018-01-05T01:02:51.933Z,93.10
2018-01-05T01:05:20.441Z,93.20
2018-01-05T01:07:48.667Z,92.90
2018-01-05T01:10:17.525Z,92.80
2018-01-05T01:12:46.457Z,92.80
2018-01-05T01:15:14.585Z,94.50
2018-01-05T01:17:43.816Z,94.30
2018-01-05T01:20:13.445Z,95.10
2018-01-05T01:22:41.841Z,95.00
2018-01-05T01:25:09.952Z,95.10
2018-01-05T01:27:38.137Z,95.20
2018-01-05T01:30:06.265Z,95.50
2018-01-05T01:32:34.428Z,96.10
2018-01-05T01:35:02.700Z,95.60
2018-01-05T01:37:30.918Z,95.80
2018-01-05T01:39:59.076Z,95.20
2018-01-05T01:42:27.237Z,94.60
2018-01-05T01:44:55.478Z,93.80
2018-01-05T01:47:24.365Z,93.40
2018-01-05T01:49:53.245Z,93.60
2018-01-05T01:52:21.849Z,93.50
2018-01-05T01:54:50.003Z,93.80
2018-01-05T01:57:18.118Z,93.90
2018-01-05T01:59:46.277Z,94.10
2018-01-05T02:02:14.472Z,94.60
2018-01-05T02:04:42.678Z,94.80
2018-01-05T02:07:11.245Z,94.40
2018-01-05T02:09:39.460Z,94.50
2018-01-05T02:12:08.449Z,94.60
2018-01-05T02:14:36.585Z,94.90
2018-01-05T02:17:04.768Z,95.40
2018-01-05T02:19:32.942Z,95.80
2018-01-05T02:22:01.096Z,96.30
2018-01-05T02:24:29.256Z,96.30
2018-01-05T02:26:57.996Z,96.50
2018-01-05T02:29:26.144Z,96.40
2018-01-05T02:31:54.607Z,96.50
2018-01-05T02:34:22.761Z,96.80
2018-01-05T02:36:50.906Z,97.10
2018-01-05T02:39:19.098Z,97.40
2018-01-05T02:41:47.997Z,97.40
2018-01-05T02:44:16.861Z,97.90
2018-01-05T02:46:46.134Z,97.70
2018-01-05T02:49:15.104Z,98.30
2018-01-05T02:51:43.265Z,99.00
2018-01-05T02:54:12.576Z,98.60
2018-01-05T02:56:41.134Z,98.60
2018-01-05T02:59:09.305Z,98.70
2018-01-05T03:01:37.453Z,98.20
2018-01-05T03:04:05.585Z,97.50
2018-01-05T03:06:33.790Z,97.30
2018-01-05T03:09:01.949Z,97.40
2018-01-05T03:11:30.126Z,97.00
2018-01-05T03:13:58.289Z,97.00
2018-01-05T03:16:26.744Z,97.00
2018-01-05T03:18:55.821Z,96.60
2018-01-05T03:21:23.961Z,96.60
2018-01-05T03:23:52.110Z,97.10
2018-01-05T03:26:20.268Z,97.20
2018-01-05T03:28:48.382Z,97.20
2018-01-05T03:31:16.517Z,96.90
2018-01-05T03:33:44.674Z,97.00
2018-01-05T03:36:13.560Z,97.20
2018-01-05T03:38:42.439Z,97.50
2018-01-05T03:41:10.927Z,97.40
2018-01-05T03:43:40.050Z,98.20
2018-01-05T03:46:08.329Z,98.10
2018-01-05T03:48:36.638Z,98.60
2018-01-05T03:51:04.888Z,98.60
2018-01-05T03:53:33.268Z,98.90
2018-01-05T03:56:01.866Z,99.00
2018-01-05T03:58:30.864Z,98.60
2018-01-05T04:00:59.037Z,98.00
2018-01-05T04:03:27.204Z,98.00
2018-01-05T04:05:55.336Z,98.40
2018-01-05T04:08:23.475Z,98.70
2018-01-05T04:10:51.621Z,99.00
2018-01-05T04:13:20.311Z,99.30
2018-01-05T04:15:48.586Z,99.70
2018-01-05T04:18:17.365Z,99.90
2018-01-05T04:20:45.781Z,99.90
2018-01-05T04:23:13.925Z,99.90
2018-01-05T04:25:42.185Z,99.90
2018-01-05T04:28:10.665Z,99.90
2018-01-05T04:30:38.792Z,99.90
2018-01-05T04:33:06.940Z,99.90
2018-01-05T04:35:35.121Z,99.80
2018-01-05T04:38:03.321Z,99.50
2018-01-05T04:40:31.729Z,99.40
2018-01-05T04:42:59.928Z,99.10
2018-01-05T04:45:28.136Z,98.80
2018-01-05T04:47:56.864Z,98.60
2018-01-05T04:50:25.749Z,97.90
2018-01-05T04:52:54.716Z,97.90
2018-01-05T04:55:22.897Z,97.60
2018-01-05T04:57:51.020Z,97.30
2018-01-05T05:00:19.153Z,97.40
2018-01-05T05:02:47.301Z,97.10
2018-01-05T05:05:15.488Z,97.00
2018-01-05T05:07:46.353Z,97.20
2018-01-05T05:10:14.572Z,96.90
2018-01-05T05:12:43.649Z,96.90
2018-01-05T05:15:11.795Z,97.10
2018-01-05T05:17:39.917Z,97.10
2018-01-05T05:20:08.127Z,97.10
2018-01-05T05:22:36.273Z,97.30
2018-01-05T05:25:04.657Z,98.00
2018-01-05T05:27:32.810Z,98.50
2018-01-05T05:30:01.033Z,98.60
2018-01-05T05:32:29.181Z,98.30
2018-01-05T05:34:57.344Z,98.10
2018-01-05T05:37:25.793Z,98.30
2018-01-05T05:39:54.481Z,98.80
2018-01-05T05:42:23.080Z,99.30
2018-01-05T05:44:51.228Z,99.20
2018-01-05T05:47:20.246Z,98.50
2018-01-05T05:49:48.420Z,98.40
2018-01-05T05:52:16.552Z,98.60
2018-01-05T05:54:44.783Z,99.10
2018-01-05T05:57:12.917Z,98.40
2018-01-05T05:59:42.156Z,98.10
2018-01-05T06:02:10.393Z,98.00
2018-01-05T06:04:39.285Z,97.40
2018-01-05T06:07:08.148Z,97.50
2018-01-05T06:09:36.300Z,97.30
2018-01-05T06:12:04.524Z,97.40
2018-01-05T06:14:33.113Z,97.20
2018-01-05T06:17:01.259Z,97.50
2018-01-05T06:19:30.869Z,97.70
2018-01-05T06:21:59.068Z,97.70
2018-01-05T06:24:28.017Z,97.60
2018-01-05T06:26:56.132Z,97.50
2018-01-05T06:29:24.258Z,97.60
2018-01-05T06:31:52.461Z,96.60
2018-01-05T06:34:20.605Z,96.80
2018-01-05T06:36:48.902Z,96.90
2018-01-05T06:39:17.780Z,96.80
2018-01-05T06:41:46.932Z,96.80
2018-01-05T06:44:15.258Z,96.80
2018-01-05T06:46:43.409Z,96.40
2018-01-05T06:49:11.550Z,96.10
2018-01-05T06:51:39.682Z,96.00
2018-01-05T06:54:07.848Z,95.70
2018-01-05T06:56:35.994Z,94.80
2018-01-05T06:59:04.727Z,94.80
2018-01-05T07:01:34.364Z,94.60
2018-01-05T07:04:02.970Z,94.10
2018-01-05T07:06:31.416Z,93.90
2018-01-05T07:08:59.569Z,94.00
2018-01-05T07:11:27.699Z,94.00
2018-01-05T07:13:55.971Z,94.10
2018-01-05T07:16:24.123Z,93.80
2018-01-05T07:18:53.154Z,92.90
2018-01-05T07:21:21.373Z,92.80
2018-01-05T07:23:50.805Z,93.20
2018-01-05T07:26:19.744Z,93.10
2018-01-05T07:28:48.219Z,93.40
2018-01-05T07:31:16.380Z,92.80
2018-01-05T07:33:44.842Z,92.80
2018-01-05T07:36:13.117Z,92.50
2018-01-05T07:38:41.253Z,92.50
2018-01-05T07:41:09.363Z,92.50
2018-01-05T07:43:37.538Z,92.30
2018-01-05T07:46:05.692Z,92.50
2018-01-05T07:48:33.837Z,92.50
2018-01-05T07:51:01.970Z,92.50
2018-01-05T07:53:30.116Z,92.50
2018-01-05T07:55:58.250Z,93.00
2018-01-05T07:58:26.424Z,92.90
2018-01-05T08:00:55.063Z,92.50
2018-01-05T08:03:23.194Z,92.10
2018-01-05T08:05:52.085Z,91.30
2018-01-05T08:08:20.212Z,91.30
2018-01-05T08:10:48.796Z,91.40
2018-01-05T08:13:17.014Z,91.50
2018-01-05T08:15:45.173Z,91.20
2018-01-05T08:18:13.407Z,91.00
2018-01-05T08:20:41.601Z,90.70
2018-01-05T08:23:09.777Z,90.90
2018-01-05T08:25:38.689Z,90.80
2018-01-05T08:28:07.169Z,90.50
2018-01-05T08:30:35.480Z,90.50
2018-01-05T08:33:04.413Z,89.60
2018-01-05T08:35:33.057Z,89.50
2018-01-05T08:38:02.503Z,89.00
2018-01-05T08:40:30.649Z,88.80
2018-01-05T08:42:59.545Z,88.90
2018-01-05T08:45:28.117Z,88.90
2018-01-05T08:47:56.549Z,88.80
2018-01-05T08:50:25.234Z,88.80
2018-01-05T08:52:54.094Z,89.00
2018-01-05T08:55:22.862Z,88.60
2018-01-05T08:57:51.245Z,88.10
2018-01-05T09:00:24.081Z,88.10
2018-01-05T09:02:52.425Z,88.50
2018-01-05T09:05:20.799Z,89.80
2018-01-05T09:07:49.077Z,89.00
2018-01-05T09:10:17.284Z,88.80
2018-01-05T09:12:45.453Z,88.80
2018-01-05T09:15:14.342Z,89.20
2018-01-05T09:17:42.597Z,89.20
2018-01-05T09:20:10.816Z,89.50
2018-01-05T09:22:39.014Z,89.60
2018-01-05T09:25:07.193Z,90.00
2018-01-05T09:27:35.497Z,90.40
2018-01-05T09:30:03.998Z,90.70
2018-01-05T09:32:32.203Z,90.80
2018-01-05T09:35:00.666Z,90.50
2018-01-05T09:37:29.042Z,90.90
2018-01-05T09:39:57.245Z,91.30
2018-01-05T09:42:26.962Z,91.60
2018-01-05T09:44:55.179Z,91.60
2018-01-05T09:47:23.579Z,92.00
2018-01-05T09:49:51.773Z,91.90
2018-01-05T09:52:19.991Z,91.90
2018-01-05T09:54:48.941Z,92.20
2018-01-05T09:57:17.141Z,92.20
2018-01-05T09:59:45.540Z,92.00
2018-01-05T10:02:14.596Z,93.10
2018-01-05T10:04:42.773Z,92.30
2018-01-05T10:07:11.117Z,92.90
2018-01-05T10:09:39.530Z,92.90
2018-01-05T10:12:07.730Z,93.30
2018-01-05T10:14:36.826Z,93.40
2018-01-05T10:17:05.788Z,93.50
2018-01-05T10:19:34.681Z,94.10
2018-01-05T10:22:03.574Z,93.70
2018-01-05T10:24:32.387Z,94.30
2018-01-05T10:27:00.525Z,94.20
2018-01-05T10:29:28.901Z,94.70
2018-01-05T10:31:57.441Z,94.80
2018-01-05T10:34:25.963Z,95.20
2018-01-05T10:36:54.345Z,96.10
2018-01-05T10:39:22.521Z,96.50
2018-01-05T10:41:50.797Z,96.80
2018-01-05T10:44:19.373Z,96.60
2018-01-05T10:46:47.557Z,96.40
2018-01-05T10:49:15.743Z,96.80
2018-01-05T10:51:43.906Z,97.00
2018-01-05T10:54:12.245Z,96.90
2018-01-05T10:56:41.291Z,96.70
2018-01-05T10:59:09.461Z,96.70
2018-01-05T11:01:37.827Z,97.10
2018-01-05T11:04:05.987Z,96.70
2018-01-05T11:06:34.133Z,96.70
2018-01-05T11:09:02.611Z,96.80
2018-01-05T11:11:32.506Z,95.10
2018-01-05T11:14:02.283Z,95.50
2018-01-05T11:16:30.444Z,95.30
2018-01-05T11:18:58.585Z,95.40
2018-01-05T11:21:27.455Z,95.40
2018-01-05T11:23:55.954Z,95.40
2018-01-05T11:26:24.138Z,96.20
2018-01-05T11:28:52.277Z,95.20
2018-01-05T11:31:21.198Z,94.70
2018-01-05T11:33:49.364Z,94.70
2018-01-05T11:36:17.884Z,94.30
2018-01-05T11:38:46.005Z,93.20
2018-01-05T11:41:14.873Z,92.20
2018-01-05T11:43:43.089Z,92.20
2018-01-05T11:46:12.185Z,91.90
2018-01-05T11:48:41.067Z,92.00
2018-01-05T11:51:09.289Z,91.90
2018-01-05T11:53:38.193Z,91.00
2018-01-05T11:56:06.335Z,91.00
2018-01-05T11:58:34.493Z,90.10
2018-01-05T12:01:02.741Z,90.20
2018-01-05T12:03:32.677Z,90.40
2018-01-05T12:06:00.861Z,90.10
2018-01-05T12:08:29.810Z,89.80
2018-01-05T12:10:57.949Z,89.80
2018-01-05T12:13:26.088Z,89.80
2018-01-05T12:15:54.238Z,89.40
2018-01-05T12:18:22.363Z,88.80
2018-01-05T12:20:50.505Z,88.50
2018-01-05T12:23:19.025Z,88.60
2018-01-05T12:25:47.186Z,88.50
2018-01-05T12:28:15.384Z,88.40
2018-01-05T12:30:43.585Z,88.70
2018-01-05T12:33:11.713Z,89.10
2018-01-05T12:35:39.870Z,88.90
2018-01-05T12:38:08.066Z,88.20
2018-01-05T12:40:37.558Z,88.70
2018-01-05T12:43:05.740Z,88.50
2018-01-05T12:45:33.978Z,87.90
2018-01-05T12:48:02.385Z,87.20
2018-01-05T12:50:30.539Z,87.80
2018-01-05T12:52:58.704Z,87.30
2018-01-05T12:55:26.965Z,87.30
2018-01-05T12:57:55.138Z,87.30
2018-01-05T13:00:23.358Z,87.40
2018-01-05T13:02:51.509Z,87.50
2018-01-05T13:05:19.638Z,88.30
2018-01-05T13:07:47.851Z,87.30
2018-01-05T13:10:16.253Z,86.80
2018-01-05T13:12:44.396Z,86.60
2018-01-05T13:15:12.560Z,86.80
2018-01-05T13:17:40.709Z,86.60
2018-01-05T13:20:08.877Z,86.40
2018-01-05T13:22:37.049Z,86.50
2018-01-05T13:25:05.202Z,86.50
2018-01-05T13:27:34.097Z,86.90
2018-01-05T13:30:03.722Z,86.40
2018-01-05T13:32:31.865Z,86.30
2018-01-05T13:35:00.052Z,86.50
2018-01-05T13:37:28.938Z,86.60
2018-01-05T13:39:57.106Z,86.50
2018-01-05T13:42:26.720Z,86.90
2018-01-05T13:44:55.645Z,86.80
2018-01-05T13:47:23.818Z,86.70
2018-01-05T13:49:51.977Z,87.10
2018-01-05T13:52:20.131Z,86.90
2018-01-05T13:54:49.100Z,87.40
2018-01-05T13:57:17.917Z,87.40
2018-01-05T13:59:46.066Z,87.40
2018-01-05T14:02:14.761Z,87.40
2018-01-05T14:04:42.913Z,87.50
2018-01-05T14:07:11.777Z,87.40
2018-01-05T14:09:39.913Z,87.40
2018-01-05T14:12:08.077Z,87.30
2018-01-05T14:14:36.628Z,87.10
2018-01-05T14:17:05.043Z,87.30
2018-01-05T14:19:33.285Z,87.30
2018-01-05T14:22:01.426Z,87.50
2018-01-05T14:24:29.577Z,87.20
2018-01-05T14:26:57.751Z,87.10
2018-01-05T14:29:25.925Z,87.10
2018-01-05T14:31:54.087Z,87.40
2018-01-05T14:34:22.245Z,87.40
2018-01-05T14:36:50.357Z,87.30
2018-01-05T14:39:19.714Z,87.30
2018-01-05T14:41:47.889Z,87.30
2018-01-05T14:44:16.047Z,87.10
2018-01-05T14:46:44.234Z,86.60
2018-01-05T14:49:12.502Z,87.30
2018-01-05T14:51:40.701Z,86.70
2018-01-05T14:54:08.906Z,86.90
2018-01-05T14:56:37.357Z,87.40
2018-01-05T14:59:05.570Z,87.70
2018-01-05T15:01:34.607Z,88.50
2018-01-05T15:04:02.733Z,88.50
2018-01-05T15:06:31.057Z,89.10
2018-01-05T15:08:59.205Z,89.40
2018-01-05T15:11:27.332Z,89.40
2018-01-05T15:13:55.542Z,89.90
2018-01-05T15:16:23.685Z,90.20
2018-01-05T15:18:51.835Z,90.50
2018-01-05T15:21:20.141Z,90.90
2018-01-05T15:23:50.249Z,91.30
2018-01-05T15:26:18.485Z,91.60
2018-01-05T15:28:46.641Z,91.80
2018-01-05T15:31:15.316Z,92.10
2018-01-05T15:33:44.974Z,92.40
2018-01-05T15:36:13.113Z,92.40
2018-01-05T15:38:41.290Z,92.60
2018-01-05T15:41:09.684Z,92.80
2018-01-05T15:43:37.843Z,93.00
2018-01-05T15:46:06.006Z,93.20
2018-01-05T15:48:34.934Z,93.30
2018-01-05T15:51:03.440Z,93.30
2018-01-05T15:53:31.591Z,93.40
2018-01-05T15:56:00.041Z,93.60
2018-01-05T15:58:28.185Z,93.60
2018-01-05T16:00:56.321Z,93.80
2018-01-05T16:03:24.744Z,93.90
2018-01-05T16:05:52.869Z,94.00
2018-01-05T16:08:21.137Z,94.00
2018-01-05T16:10:49.308Z,94.10
2018-01-05T16:13:17.585Z,94.30
2018-01-05T16:15:45.765Z,94.60
2018-01-05T16:18:14.173Z,94.90
2018-01-05T16:20:42.316Z,95.10
2018-01-05T16:23:10.528Z,95.10
2018-01-05T16:25:38.689Z,95.40
2018-01-05T16:28:06.797Z,95.40
2018-01-05T16:30:34.930Z,95.50
2018-01-05T16:33:03.095Z,95.80
2018-01-05T16:35:31.223Z,96.10
2018-01-05T16:38:00.162Z,96.20
2018-01-05T16:40:28.737Z,96.10
2018-01-05T16:42:56.874Z,96.30
2018-01-05T16:45:25.753Z,96.30
2018-01-05T16:47:53.893Z,96.10
2018-01-05T16:50:22.029Z,96.20
2018-01-05T16:52:50.165Z,96.30
2018-01-05T16:55:18.306Z,96.30
2018-01-05T16:57:46.416Z,96.90
2018-01-05T17:00:14.558Z,96.40
2018-01-05T17:02:42.831Z,96.40
2018-01-05T17:05:10.965Z,96.40
2018-01-05T17:07:39.957Z,96.60
2018-01-05T17:10:08.153Z,96.50
2018-01-05T17:12:36.321Z,96.50
2018-01-05T17:15:05.263Z,96.50
2018-01-05T17:17:33.388Z,96.50
2018-01-05T17:20:01.517Z,96.40
2018-01-05T17:22:30.728Z,96.60
2018-01-05T17:24:59.081Z,96.60
2018-01-05T17:27:28.193Z,96.60
2018-01-05T17:29:56.361Z,96.40
2018-01-05T17:32:24.536Z,96.70
2018-01-05T17:34:52.664Z,96.70
2018-01-05T17:37:20.836Z,96.70
2018-01-05T17:39:49.037Z,96.90
2018-01-05T17:42:17.276Z,96.90
2018-01-05T17:44:45.803Z,97.20
2018-01-05T17:47:15.466Z,97.70
2018-01-05T17:49:43.733Z,97.70
2018-01-05T17:52:12.612Z,98.00
2018-01-05T17:54:41.625Z,98.10
2018-01-05T17:57:10.513Z,97.90
2018-01-05T17:59:39.465Z,97.70
2018-01-05T18:02:07.660Z,97.70
2018-01-05T18:04:35.812Z,97.60
2018-01-05T18:07:04.021Z,97.60
2018-01-05T18:09:32.152Z,97.50
2018-01-05T18:12:00.322Z,97.80
2018-01-05T18:14:28.443Z,97.80
2018-01-05T18:16:57.026Z,97.80
2018-01-05T18:19:25.914Z,97.60
2018-01-05T18:21:54.825Z,97.60
2018-01-05T18:24:22.983Z,97.60
2018-01-05T18:26:51.448Z,97.50
2018-01-05T18:29:19.723Z,97.40
2018-01-05T18:31:47.929Z,97.20
2018-01-05T18:34:16.057Z,97.10
2018-01-05T18:36:44.734Z,97.20
2018-01-05T18:39:13.104Z,97.20
2018-01-05T18:41:41.261Z,97.20
2018-01-05T18:44:09.376Z,97.10
2018-01-05T18:46:38.205Z,97.30
2018-01-05T18:49:07.170Z,97.30
2018-01-05T18:51:35.340Z,97.30
2018-01-05T18:54:03.946Z,97.50
2018-01-05T18:56:32.222Z,97.80
2018-01-05T18:59:00.502Z,97.90
2018-01-05T19:01:28.880Z,98.00
2018-01-05T19:03:57.795Z,98.60
2018-01-05T19:06:25.965Z,98.50
2018-01-05T19:08:54.209Z,98.80
2018-01-05T19:11:22.357Z,98.80
2018-01-05T19:13:50.575Z,99.10
2018-01-05T19:16:19.456Z,99.40
2018-01-05T19:18:48.366Z,99.60
2018-01-05T19:21:18.847Z,99.50
2018-01-05T19:23:47.159Z,99.80
2018-01-05T19:26:16.248Z,99.60
2018-01-05T19:28:45.129Z,99.50
2018-01-05T19:31:13.295Z,99.50
2018-01-05T19:33:42.102Z,99.60
2018-01-05T19:36:11.010Z,99.90
2018-01-05T19:38:39.961Z,99.90
2018-01-05T19:41:08.774Z,99.90
2018-01-05T19:43:37.686Z,99.90
2018-01-05T19:46:06.085Z,99.90
2018-01-05T19:48:34.233Z,99.90
2018-01-05T19:51:03.965Z,99.90
2018-01-05T19:53:32.121Z,99.90
2018-01-05T19:56:01.005Z,99.90
2018-01-05T19:58:29.197Z,99.90
2018-01-05T20:00:57.353Z,99.70
2018-01-05T20:03:26.265Z,99.80
2018-01-05T20:05:54.419Z,99.70
2018-01-05T20:08:23.329Z,99.60
2018-01-05T20:10:51.776Z,99.50
2018-01-05T20:13:19.914Z,99.50
2018-01-05T20:15:48.129Z,99.50
2018-01-05T20:18:16.310Z,99.40
2018-01-05T20:20:44.541Z,99.40
2018-01-05T20:23:12.649Z,99.30
2018-01-05T20:25:40.801Z,99.40
2018-01-05T20:28:08.937Z,99.30
2018-01-05T20:30:37.085Z,99.50
2018-01-05T20:33:06.533Z,99.60
2018-01-05T20:35:34.641Z,99.50
2018-01-05T20:38:02.770Z,99.60
2018-01-05T20:40:30.898Z,99.50
2018-01-05T20:42:59.775Z,99.50
2018-01-05T20:45:27.905Z,99.40
2018-01-05T20:47:56.053Z,99.50
2018-01-05T20:50:24.985Z,99.10
2018-01-05T20:52:53.568Z,99.10
2018-01-05T20:55:21.845Z,99.10
2018-01-05T20:57:49.977Z,99.00
2018-01-05T21:00:19.138Z,98.60
2018-01-05T21:02:47.297Z,98.60
2018-01-05T21:05:15.425Z,98.80
2018-01-05T21:07:44.285Z,98.90
2018-01-05T21:10:12.477Z,98.90
2018-01-05T21:12:41.145Z,99.00
2018-01-05T21:15:09.301Z,99.00
2018-01-05T21:17:37.459Z,99.20
2018-01-05T21:20:06.717Z,99.30
2018-01-05T21:22:34.891Z,99.40
2018-01-05T21:25:04.113Z,99.70
2018-01-05T21:27:32.292Z,99.60
2018-01-05T21:30:00.429Z,99.60
2018-01-05T21:32:28.844Z,99.50
2018-01-05T21:34:57.827Z,99.90
2018-01-05T21:37:26.047Z,99.90
2018-01-05T21:39:55.029Z,99.90
2018-01-05T21:42:23.225Z,99.90
2018-01-05T21:47:55.215Z,99.90
2018-01-05T21:50:23.865Z,99.90
2018-01-05T21:52:52.218Z,99.90
2018-01-05T21:55:20.557Z,99.90
2018-01-05T21:57:49.377Z,99.90
2018-01-05T22:00:18.457Z,99.90
2018-01-05T22:02:47.715Z,99.90
2018-01-05T22:05:16.369Z,99.90
2018-01-05T22:07:44.678Z,99.90
2018-01-05T22:10:13.269Z,99.90
2018-01-05T22:12:41.877Z,99.90
2018-01-05T22:15:10.509Z,99.60
2018-01-05T22:17:39.032Z,99.60
2018-01-05T22:20:07.629Z,99.90
2018-01-05T22:22:35.998Z,99.90
2018-01-05T22:25:04.569Z,99.90
2018-01-05T22:27:32.890Z,99.90
2018-01-05T22:30:01.594Z,99.90
2018-01-05T22:32:29.972Z,99.90
2018-01-05T22:34:58.317Z,99.90
2018-01-05T22:37:27.158Z,99.90
2018-01-05T22:39:55.729Z,99.90
2018-01-05T22:42:24.200Z,99.90
2018-01-05T22:44:52.673Z,99.90
2018-01-05T22:47:21.062Z,99.90
2018-01-05T22:49:49.733Z,99.90
2018-01-05T22:52:18.955Z,99.90
2018-01-05T22:54:47.492Z,99.90
2018-01-05T22:57:15.866Z,99.90
2018-01-05T22:59:44.222Z,99.90
2018-01-05T23:02:12.929Z,99.90
2018-01-05T23:04:41.425Z,99.90
2018-01-05T23:07:09.969Z,99.90
2018-01-05T23:09:38.337Z,99.90
2018-01-05T23:12:06.885Z,99.90
2018-01-05T23:14:35.998Z,99.90
2018-01-05T23:17:05.172Z,99.90
2018-01-05T23:19:34.293Z,99.90
2018-01-05T23:22:02.921Z,99.90
2018-01-05T23:24:31.835Z,99.90
2018-01-05T23:27:00.152Z,99.90
2018-01-05T23:29:28.496Z,99.90
2018-01-05T23:31:56.927Z,99.90
2018-01-05T23:34:25.238Z,99.90
2018-01-05T23:36:53.706Z,99.90
2018-01-05T23:39:22.185Z,99.90
2018-01-05T23:41:51.649Z,99.90
2018-01-05T23:44:20.237Z,99.90
2018-01-05T23:46:48.942Z,99.90
2018-01-05T23:49:17.338Z,99.90
2018-01-05T23:51:45.929Z,99.90
2018-01-05T23:54:14.279Z,99.90
2018-01-05T23:56:42.649Z,99.90
2018-01-05T23:59:11.672Z,99.90
